Time;durP1;ratioP1;P1;durP2;ratioP2;P2;SDS_P1;SDS_P2;PMS_P1;PMS_P2;Temp;Humidity;BMP_temperature;BMP_pressure;BME280_temperature;BME280_humidity;BME280_pressure;Samples;Min_cycle;Max_cycle;Signal;HPM_P1;HPM_P2
2022/02/22 00:00:16;;;;;;;23.52;3.58;;;6.40;99.90;;;;;;5033735;28;20053;-76
2022/02/22 00:02:43;;;;;;;28.25;4.55;;;6.40;99.90;;;;;;5035108;28;20048;-77
2022/02/22 00:05:10;;;;;;;28.15;4.40;;;6.40;99.90;;;;;;5033721;28;20382;-76
2022/02/22 00:07:35;;;;;;;27.17;5.50;;;6.30;99.90;;;;;;5035019;28;20021;-76
2022/02/22 00:10:01;;;;;;;32.30;5.60;;;6.30;99.90;;;;;;5034925;28;20052;-76
2022/02/22 00:12:27;;;;;;;27.98;5.15;;;6.30;99.90;;;;;;5034920;28;20385;-76
2022/02/22 00:14:52;;;;;;;32.13;4.03;;;6.30;99.90;;;;;;5033405;28;20425;-76
2022/02/22 00:17:18;;;;;;;24.83;3.35;;;6.30;99.90;;;;;;5050544;28;20462;-76
2022/02/22 00:19:43;;;;;;;23.55;4.15;;;6.30;99.90;;;;;;5034871;28;20025;-76
2022/02/22 00:22:09;;;;;;;25.58;4.63;;;6.30;99.90;;;;;;5033477;28;20029;-76
2022/02/22 00:24:34;;;;;;;34.80;4.22;;;6.20;99.90;;;;;;5033449;28;20018;-77
2022/02/22 00:27:00;;;;;;;23.77;3.58;;;6.20;99.90;;;;;;5034634;28;20028;-76
2022/02/22 00:29:25;;;;;;;27.33;5.68;;;6.20;99.90;;;;;;5033952;28;20126;-76
2022/02/22 00:31:51;;;;;;;26.65;3.58;;;6.20;99.90;;;;;;5034475;28;20156;-77
2022/02/22 00:34:17;;;;;;;17.52;3.83;;;6.20;99.90;;;;;;5033197;28;20474;-76
2022/02/22 00:36:44;;;;;;;24.13;3.60;;;6.20;99.90;;;;;;5034482;28;20051;-76
2022/02/22 00:39:10;;;;;;;28.88;3.88;;;6.20;99.90;;;;;;5034402;28;20492;-76
2022/02/22 00:41:36;;;;;;;21.95;3.47;;;6.10;99.90;;;;;;5032866;28;20045;-76
2022/02/22 00:44:03;;;;;;;25.05;3.70;;;6.10;99.90;;;;;;5034753;28;20017;-76
2022/02/22 00:46:28;;;;;;;29.08;4.78;;;6.10;99.90;;;;;;5034431;28;20084;-76
2022/02/22 00:48:54;;;;;;;23.83;4.22;;;6.10;99.90;;;;;;5034150;28;20489;-76
2022/02/22 00:51:19;;;;;;;15.63;3.00;;;6.10;99.90;;;;;;5032931;28;20095;-77
2022/02/22 00:53:45;;;;;;;25.98;4.82;;;6.10;99.90;;;;;;5033081;28;20025;-76
2022/02/22 00:56:11;;;;;;;22.58;3.63;;;6.10;99.90;;;;;;5032728;28;20438;-76
2022/02/22 00:58:36;;;;;;;29.10;3.58;;;6.00;99.90;;;;;;5032702;28;20481;-76
2022/02/22 01:01:02;;;;;;;21.40;3.38;;;6.00;99.90;;;;;;5033968;28;20129;-76
2022/02/22 01:03:27;;;;;;;27.13;5.47;;;6.00;99.90;;;;;;5032677;28;20021;-76
2022/02/22 01:05:53;;;;;;;23.30;2.83;;;6.00;99.90;;;;;;5033934;28;20033;-77
2022/02/22 01:08:18;;;;;;;19.25;3.17;;;6.00;99.90;;;;;;5033916;28;20490;-76
2022/02/22 01:10:44;;;;;;;19.10;3.47;;;5.90;99.90;;;;;;5032528;28;20060;-76
2022/02/22 01:13:09;;;;;;;22.52;3.67;;;6.00;99.90;;;;;;5032452;28;20481;-76
2022/02/22 01:15:35;;;;;;;38.58;4.88;;;6.00;99.90;;;;;;5033759;28;20033;-76
2022/02/22 01:18:01;;;;;;;29.02;4.10;;;5.90;99.90;;;;;;5032416;28;20022;-76
2022/02/22 01:20:26;;;;;;;21.10;3.35;;;5.90;99.90;;;;;;5033696;28;20041;-76
2022/02/22 01:22:54;;;;;;;21.45;3.13;;;5.90;99.90;;;;;;5032319;28;20547;-76
2022/02/22 01:25:20;;;;;;;22.02;3.67;;;5.90;99.90;;;;;;5033551;28;20025;-76
2022/02/22 01:27:46;;;;;;;21.13;3.78;;;5.90;99.90;;;;;;5033469;28;20029;-76
2022/02/22 01:30:11;;;;;;;24.27;4.20;;;5.80;99.90;;;;;;5032123;28;20548;-76
2022/02/22 01:32:37;;;;;;;30.55;4.65;;;5.80;99.90;;;;;;5033463;28;20029;-76
2022/02/22 01:35:04;;;;;;;25.98;4.10;;;5.80;99.90;;;;;;5033237;28;20413;-76
2022/02/22 01:37:30;;;;;;;21.10;3.92;;;5.80;99.90;;;;;;5033393;28;20048;-76
2022/02/22 01:39:55;;;;;;;25.92;4.55;;;5.80;99.90;;;;;;5031339;28;20495;-76
2022/02/22 01:42:21;;;;;;;22.33;3.55;;;5.80;99.90;;;;;;5032862;28;20430;-76
2022/02/22 01:44:47;;;;;;;26.00;4.22;;;5.80;99.90;;;;;;5033198;28;20029;-76
2022/02/22 01:47:16;;;;;;;17.90;3.03;;;5.80;99.90;;;;;;5033181;28;20060;-77
2022/02/22 01:49:42;;;;;;;25.05;3.25;;;5.80;99.90;;;;;;5032937;28;20020;-76
2022/02/22 01:52:08;;;;;;;23.38;3.45;;;5.80;99.90;;;;;;5031812;28;20043;-76
2022/02/22 01:54:34;;;;;;;28.02;3.72;;;5.90;99.90;;;;;;5032917;28;20454;-76
2022/02/22 01:56:59;;;;;;;24.40;3.72;;;5.80;99.90;;;;;;5031738;28;20025;-76
2022/02/22 01:59:25;;;;;;;19.05;3.33;;;5.80;99.90;;;;;;5033272;28;20032;-76
2022/02/22 02:01:51;;;;;;;23.67;4.00;;;5.80;99.90;;;;;;5033053;28;20427;-76
2022/02/22 02:04:16;;;;;;;19.55;3.70;;;5.80;99.90;;;;;;5032873;28;20489;-76
2022/02/22 02:06:42;;;;;;;21.63;4.75;;;5.80;99.90;;;;;;5032975;28;20021;-75
2022/02/22 02:09:09;;;;;;;24.00;4.05;;;5.80;99.90;;;;;;5048149;28;20545;-76
2022/02/22 02:11:49;;;;;;;27.67;5.97;;;5.80;99.90;;;;;;5031469;28;20405;-76
2022/02/22 02:14:16;;;;;;;26.42;2.95;;;5.80;99.90;;;;;;5032722;28;20094;-76
2022/02/22 02:16:42;;;;;;;26.15;4.28;;;5.80;99.90;;;;;;5032734;28;20049;-76
2022/02/22 02:19:09;;;;;;;25.02;4.65;;;5.70;99.90;;;;;;5032662;28;20026;-76
2022/02/22 02:21:36;;;;;;;21.50;3.38;;;5.80;99.90;;;;;;5031430;28;20052;-76
2022/02/22 02:24:13;;;;;;;18.80;3.38;;;5.70;99.90;;;;;;5031522;28;20112;-76
2022/02/22 02:26:40;;;;;;;14.75;3.05;;;5.70;99.90;;;;;;5031410;28;20021;-76
2022/02/22 02:29:07;;;;;;;19.23;3.60;;;5.70;99.90;;;;;;5032644;28;20040;-76
2022/02/22 02:31:33;;;;;;;27.85;5.57;;;5.70;99.90;;;;;;5031284;28;20036;-76
2022/02/22 02:34:01;;;;;;;24.38;3.67;;;5.70;99.90;;;;;;5031291;28;20397;-76
2022/02/22 02:36:27;;;;;;;20.60;3.25;;;5.70;99.90;;;;;;5031017;28;20026;-76
2022/02/22 02:38:52;;;;;;;20.55;2.85;;;5.70;99.90;;;;;;5032591;28;20394;-76
2022/02/22 02:41:18;;;;;;;17.83;2.95;;;5.60;99.90;;;;;;5032342;28;20049;-75
2022/02/22 02:43:43;;;;;;;14.90;3.08;;;5.60;99.90;;;;;;5031156;28;20110;-76
2022/02/22 02:46:09;;;;;;;17.65;3.20;;;5.60;99.90;;;;;;5032361;28;20060;-76
2022/02/22 02:48:35;;;;;;;19.75;4.32;;;5.60;99.90;;;;;;5031116;28;20017;-76
2022/02/22 02:51:01;;;;;;;18.20;3.00;;;5.60;99.90;;;;;;5032355;28;20455;-76
2022/02/22 02:53:26;;;;;;;25.25;2.85;;;5.60;99.90;;;;;;5036035;28;20072;-76
2022/02/22 02:55:52;;;;;;;17.88;3.40;;;5.60;99.90;;;;;;5036249;28;20030;-76
2022/02/22 02:58:17;;;;;;;19.00;3.10;;;5.60;99.90;;;;;;5036374;28;20386;-76
2022/02/22 03:00:43;;;;;;;26.05;3.50;;;5.60;99.90;;;;;;5051734;28;20053;-76
2022/02/22 03:03:08;;;;;;;24.23;3.25;;;5.60;99.90;;;;;;5036190;28;20500;-76
2022/02/22 03:05:34;;;;;;;27.92;4.05;;;5.50;99.90;;;;;;5036062;28;20029;-76
2022/02/22 03:07:59;;;;;;;20.13;3.53;;;5.60;99.90;;;;;;5035553;28;20025;-75
2022/02/22 03:10:26;;;;;;;19.83;3.28;;;5.50;99.90;;;;;;5036194;28;20389;-75
2022/02/22 03:12:52;;;;;;;14.55;2.97;;;5.50;99.90;;;;;;5054333;28;20096;-75
2022/02/22 03:15:18;;;;;;;18.63;2.33;;;5.50;99.90;;;;;;5055901;28;20113;-75
2022/02/22 03:17:43;;;;;;;19.58;2.63;;;5.50;99.90;;;;;;5039821;28;20025;-76
2022/02/22 03:20:09;;;;;;;12.23;2.03;;;5.50;99.90;;;;;;5034465;28;20025;-75
2022/02/22 03:22:36;;;;;;;14.23;2.50;;;5.50;99.90;;;;;;5035894;28;20022;-75
2022/02/22 03:25:01;;;;;;;16.00;2.53;;;5.50;99.90;;;;;;5035754;28;20017;-75
2022/02/22 03:27:27;;;;;;;12.82;2.25;;;5.50;99.90;;;;;;5035741;28;20373;-76
2022/02/22 03:29:52;;;;;;;21.30;2.50;;;5.50;99.90;;;;;;5035641;28;20022;-75
2022/02/22 03:32:18;;;;;;;19.40;4.32;;;5.40;99.90;;;;;;5035646;28;20040;-75
2022/02/22 03:34:43;;;;;;;17.83;2.70;;;5.40;99.90;;;;;;5034177;28;20557;-75
2022/02/22 03:37:10;;;;;;;19.75;2.67;;;5.40;99.90;;;;;;5034309;28;20030;-75
2022/02/22 03:39:35;;;;;;;19.85;2.42;;;5.40;99.90;;;;;;5034438;28;20021;-73
2022/02/22 03:42:01;;;;;;;18.90;2.75;;;5.40;99.90;;;;;;5035550;28;20366;-75
2022/02/22 03:44:26;;;;;;;20.42;3.25;;;5.40;99.90;;;;;;5034162;28;20466;-75
2022/02/22 03:46:52;;;;;;;16.83;2.30;;;5.40;99.90;;;;;;5035296;28;20030;-75
2022/02/22 03:49:17;;;;;;;19.67;3.25;;;5.40;99.90;;;;;;5035363;28;20485;-75
2022/02/22 03:51:43;;;;;;;19.17;3.25;;;5.40;99.90;;;;;;5035370;28;20033;-75
2022/02/22 03:54:08;;;;;;;16.15;2.25;;;5.40;99.90;;;;;;5035271;28;20120;-75
2022/02/22 03:56:34;;;;;;;17.80;2.13;;;5.40;99.90;;;;;;5035165;28;20033;-75
2022/02/22 03:58:59;;;;;;;16.00;2.72;;;5.40;99.90;;;;;;5035230;28;20022;-75
2022/02/22 04:01:25;;;;;;;19.20;2.10;;;5.40;99.90;;;;;;5033650;28;20025;-75
2022/02/22 04:03:50;;;;;;;17.35;2.58;;;5.40;99.90;;;;;;5031530;28;20458;-75
2022/02/22 04:06:16;;;;;;;13.07;1.92;;;5.30;99.90;;;;;;5034272;28;20537;-75
2022/02/22 04:08:41;;;;;;;17.10;2.28;;;5.30;99.90;;;;;;5049802;28;20021;-76
2022/02/22 04:11:07;;;;;;;17.25;2.08;;;5.30;99.90;;;;;;5034762;28;20025;-75
2022/02/22 04:13:32;;;;;;;20.98;2.42;;;5.30;99.90;;;;;;5033670;28;20363;-77
2022/02/22 04:15:58;;;;;;;12.60;2.05;;;5.30;99.90;;;;;;5034738;28;20045;-75
2022/02/22 04:18:23;;;;;;;12.73;1.90;;;5.30;99.90;;;;;;5034821;28;20078;-75
2022/02/22 04:20:49;;;;;;;14.73;2.30;;;5.20;99.90;;;;;;5047099;28;20354;-75
2022/02/22 04:23:14;;;;;;;14.57;2.28;;;5.30;99.90;;;;;;5054590;28;20027;-75
2022/02/22 04:25:40;;;;;;;16.02;2.30;;;5.20;99.90;;;;;;5070050;28;20033;-76
2022/02/22 04:28:06;;;;;;;16.27;2.55;;;5.20;99.90;;;;;;5054502;28;20025;-76
2022/02/22 04:30:31;;;;;;;13.48;2.30;;;5.20;99.90;;;;;;5054883;28;20412;-76
2022/02/22 04:32:57;;;;;;;16.80;2.83;;;5.20;99.90;;;;;;5053049;28;20025;-76
2022/02/22 04:35:22;;;;;;;12.57;1.60;;;5.10;99.90;;;;;;5054425;28;20389;-76
2022/02/22 04:37:48;;;;;;;16.98;2.15;;;5.10;99.90;;;;;;5053021;28;20032;-76
2022/02/22 04:40:13;;;;;;;20.38;3.05;;;5.10;99.90;;;;;;5054213;28;20052;-76
2022/02/22 04:42:39;;;;;;;22.02;3.03;;;5.10;99.90;;;;;;5054411;28;20033;-76
2022/02/22 04:45:05;;;;;;;14.60;2.13;;;5.10;99.90;;;;;;5054194;28;20039;-76
2022/02/22 04:47:31;;;;;;;10.27;2.08;;;5.10;99.90;;;;;;5054137;28;20021;-76
2022/02/22 04:49:56;;;;;;;21.13;3.40;;;5.00;99.90;;;;;;5054083;28;20115;-76
2022/02/22 04:52:22;;;;;;;17.98;3.20;;;5.00;99.90;;;;;;5054172;28;20021;-76
2022/02/22 04:54:47;;;;;;;15.32;2.35;;;5.00;99.90;;;;;;5053913;28;20043;-76
2022/02/22 04:57:13;;;;;;;17.58;2.33;;;5.00;99.90;;;;;;5052781;28;20108;-76
2022/02/22 04:59:38;;;;;;;15.60;2.30;;;5.00;99.90;;;;;;5054054;28;20028;-76
2022/02/22 05:02:04;;;;;;;12.50;1.92;;;4.90;99.90;;;;;;5069155;28;20075;-76
2022/02/22 05:04:30;;;;;;;13.98;2.45;;;4.90;99.90;;;;;;5053880;28;20025;-75
2022/02/22 05:06:55;;;;;;;17.80;3.20;;;4.90;99.90;;;;;;5053740;28;20025;-76
2022/02/22 05:09:21;;;;;;;11.65;1.75;;;4.90;99.90;;;;;;5069284;28;20021;-76
2022/02/22 05:11:47;;;;;;;22.60;4.10;;;4.90;99.90;;;;;;5069169;28;20028;-76
2022/02/22 05:14:12;;;;;;;13.98;2.30;;;4.80;99.90;;;;;;5053608;28;20037;-76
2022/02/22 05:16:39;;;;;;;16.25;2.42;;;4.80;99.90;;;;;;5053506;28;20473;-76
2022/02/22 05:19:05;;;;;;;16.48;3.20;;;4.80;99.90;;;;;;5053575;28;20032;-76
2022/02/22 05:21:31;;;;;;;23.10;2.75;;;4.70;99.90;;;;;;5068907;28;20024;-76
2022/02/22 05:23:57;;;;;;;18.08;3.83;;;4.70;99.90;;;;;;5053412;28;20025;-76
2022/02/22 05:26:23;;;;;;;12.63;1.92;;;4.70;99.90;;;;;;5053511;28;20358;-76
2022/02/22 05:28:48;;;;;;;14.15;2.60;;;4.70;99.90;;;;;;5053427;28;20029;-76
2022/02/22 05:31:16;;;;;;;15.85;2.22;;;4.70;99.90;;;;;;5068912;28;20075;-76
2022/02/22 05:33:42;;;;;;;12.32;2.22;;;4.60;99.90;;;;;;5053401;28;20069;-76
2022/02/22 05:36:08;;;;;;;11.88;2.45;;;4.70;99.90;;;;;;5053222;28;20025;-76
2022/02/22 05:38:33;;;;;;;16.83;2.35;;;4.70;99.90;;;;;;5053267;28;20033;-76
2022/02/22 05:40:59;;;;;;;10.23;1.65;;;4.70;99.90;;;;;;5052936;28;20127;-76
2022/02/22 05:43:24;;;;;;;14.23;2.00;;;4.70;99.90;;;;;;5053244;28;20037;-76
2022/02/22 05:45:52;;;;;;;13.63;3.17;;;4.60;99.90;;;;;;5053016;28;20025;-76
2022/02/22 05:48:17;;;;;;;9.50;1.40;;;4.60;99.90;;;;;;5053035;28;20484;-77
2022/02/22 05:50:43;;;;;;;12.25;1.83;;;4.60;99.90;;;;;;5052801;28;20108;-76
2022/02/22 05:53:09;;;;;;;13.73;2.22;;;4.60;99.90;;;;;;5068295;28;20036;-76
2022/02/22 05:55:34;;;;;;;8.55;1.33;;;4.60;99.90;;;;;;5052217;28;20481;-76
2022/02/22 05:58:00;;;;;;;8.77;1.30;;;4.60;99.90;;;;;;5052801;28;20503;-76
2022/02/22 06:00:25;;;;;;;15.88;1.92;;;4.50;99.90;;;;;;5068311;28;20024;-77
2022/02/22 06:02:51;;;;;;;13.95;2.22;;;4.50;99.90;;;;;;5068152;28;20035;-77
2022/02/22 06:05:16;;;;;;;12.73;1.73;;;4.50;99.90;;;;;;5068258;28;20447;-76
2022/02/22 06:07:42;;;;;;;9.15;1.80;;;4.40;99.90;;;;;;5052695;28;20473;-76
2022/02/22 06:10:08;;;;;;;10.18;1.52;;;4.50;99.90;;;;;;5052734;28;20037;-76
2022/02/22 06:12:34;;;;;;;10.43;2.05;;;4.40;99.90;;;;;;5052820;28;20112;-76
2022/02/22 06:15:00;;;;;;;13.77;1.65;;;4.40;99.90;;;;;;5052462;28;20477;-76
2022/02/22 06:17:25;;;;;;;16.02;2.13;;;4.40;99.90;;;;;;5052641;28;20123;-77
2022/02/22 06:19:51;;;;;;;14.35;2.03;;;4.40;99.90;;;;;;5051999;28;20020;-76
2022/02/22 06:22:17;;;;;;;15.57;2.28;;;4.30;99.90;;;;;;5033060;28;20075;-76
2022/02/22 06:24:42;;;;;;;15.05;2.35;;;4.30;99.90;;;;;;5032692;28;20500;-76
2022/02/22 06:27:08;;;;;;;11.50;1.90;;;4.30;99.90;;;;;;5030800;28;20450;-75
2022/02/22 06:29:34;;;;;;;23.20;4.03;;;4.30;99.90;;;;;;5032660;28;20040;-75
2022/02/22 06:32:00;;;;;;;25.30;3.22;;;4.30;99.90;;;;;;5032477;28;20401;-73
2022/02/22 06:34:26;;;;;;;24.15;3.38;;;4.20;99.90;;;;;;5047972;28;20022;-73
2022/02/22 06:36:51;;;;;;;16.73;2.80;;;4.20;99.90;;;;;;5032638;28;20504;-74
2022/02/22 06:39:17;;;;;;;20.75;2.65;;;4.20;99.90;;;;;;5031255;28;20036;-74
2022/02/22 06:41:42;;;;;;;18.10;2.47;;;4.10;99.90;;;;;;5032381;28;20120;-74
2022/02/22 06:44:08;;;;;;;16.75;2.92;;;4.10;99.90;;;;;;5032446;28;20112;-74
2022/02/22 06:46:33;;;;;;;12.27;2.40;;;4.20;99.90;;;;;;5032388;28;20037;-75
2022/02/22 06:48:59;;;;;;;14.40;2.10;;;4.20;99.90;;;;;;5031117;28;20436;-74
2022/02/22 06:51:24;;;;;;;13.15;1.70;;;4.20;99.90;;;;;;5032536;28;20021;-74
2022/02/22 06:53:51;;;;;;;10.07;1.92;;;4.30;99.90;;;;;;5032407;28;20426;-74
2022/02/22 06:56:16;;;;;;;26.42;3.55;;;4.30;99.90;;;;;;5032747;28;20021;-74
2022/02/22 06:58:42;;;;;;;18.45;2.20;;;4.30;99.90;;;;;;5032336;28;20104;-73
2022/02/22 07:01:07;;;;;;;21.63;3.67;;;4.30;99.90;;;;;;5032280;28;20029;-73
2022/02/22 07:03:33;;;;;;;23.55;3.45;;;4.30;99.90;;;;;;5032481;28;20029;-74
2022/02/22 07:05:58;;;;;;;14.40;2.35;;;4.30;99.90;;;;;;5032292;28;20037;-73
2022/02/22 07:08:24;;;;;;;14.30;2.35;;;4.40;99.90;;;;;;5031007;28;20178;-74
2022/02/22 07:10:50;;;;;;;20.08;2.50;;;4.40;99.90;;;;;;5042698;28;20036;-73
2022/02/22 07:13:16;;;;;;;15.43;2.50;;;4.50;99.90;;;;;;5050279;28;20032;-73
2022/02/22 07:15:42;;;;;;;11.25;2.08;;;4.50;99.90;;;;;;5050445;28;20051;-74
2022/02/22 07:18:09;;;;;;;17.08;3.15;;;4.60;99.90;;;;;;5051562;28;20481;-73
2022/02/22 07:20:35;;;;;;;17.00;2.55;;;4.70;99.90;;;;;;5050890;28;20029;-73
2022/02/22 07:23:01;;;;;;;13.65;3.20;;;4.70;99.90;;;;;;5047382;28;20025;-74
2022/02/22 07:25:29;;;;;;;17.60;2.08;;;4.70;99.90;;;;;;5049543;28;20025;-73
2022/02/22 07:27:57;;;;;;;20.45;3.47;;;4.70;99.90;;;;;;5067265;28;20481;-73
2022/02/22 07:30:23;;;;;;;16.75;2.63;;;4.70;99.90;;;;;;5052110;28;20029;-73
2022/02/22 07:32:53;;;;;;;13.02;2.35;;;4.70;99.90;;;;;;5051931;28;20043;-73
2022/02/22 07:35:18;;;;;;;17.75;2.05;;;4.80;99.90;;;;;;5051959;28;20466;-73
2022/02/22 07:37:44;;;;;;;17.88;2.85;;;4.80;99.90;;;;;;5049512;28;20059;-74
2022/02/22 07:40:12;;;;;;;21.88;3.55;;;4.80;99.90;;;;;;5054600;28;20041;-73
2022/02/22 07:42:39;;;;;;;22.35;3.03;;;4.90;99.90;;;;;;5055421;28;20025;-73
2022/02/22 07:45:07;;;;;;;14.13;3.13;;;4.90;99.90;;;;;;5055649;28;20026;-73
2022/02/22 07:47:33;;;;;;;16.88;3.67;;;5.00;99.90;;;;;;5055334;28;20029;-73
2022/02/22 07:49:58;;;;;;;16.52;3.03;;;5.10;99.90;;;;;;5054295;28;20388;-72
2022/02/22 07:52:28;;;;;;;23.05;3.90;;;5.10;99.90;;;;;;5055357;28;20472;-72
2022/02/22 07:54:54;;;;;;;21.40;3.65;;;5.20;99.90;;;;;;5055072;28;20025;-72
2022/02/22 07:57:22;;;;;;;19.58;3.63;;;5.20;99.90;;;;;;5055154;28;20025;-72
2022/02/22 07:59:48;;;;;;;16.73;3.83;;;5.20;99.90;;;;;;5053280;28;20378;-72
2022/02/22 08:02:13;;;;;;;12.23;3.35;;;5.30;99.90;;;;;;5064361;28;20170;-72
2022/02/22 08:04:40;;;;;;;21.50;4.00;;;5.40;99.90;;;;;;5046687;28;20111;-73
2022/02/22 08:07:07;;;;;;;18.38;3.80;;;5.50;99.90;;;;;;5048013;28;20021;-73
2022/02/22 08:09:32;;;;;;;22.58;4.18;;;5.60;99.90;;;;;;5053112;28;20583;-74
2022/02/22 08:11:58;;;;;;;20.85;3.92;;;5.70;99.90;;;;;;5053499;28;20102;-73
2022/02/22 08:14:24;;;;;;;19.27;4.82;;;5.80;99.90;;;;;;5053382;28;20025;-73
2022/02/22 08:16:51;;;;;;;24.67;4.00;;;5.90;99.90;;;;;;5052858;28;20025;-74
2022/02/22 08:19:17;;;;;;;28.45;4.22;;;5.90;99.90;;;;;;5056848;28;20111;-73
2022/02/22 08:21:42;;;;;;;21.17;4.65;;;6.00;99.90;;;;;;5049596;28;20111;-73
2022/02/22 08:24:08;;;;;;;18.33;4.05;;;6.10;99.90;;;;;;5052624;28;20027;-73
2022/02/22 08:26:34;;;;;;;21.15;4.97;;;6.10;99.90;;;;;;5052939;28;20029;-74
2022/02/22 08:28:59;;;;;;;21.95;5.00;;;6.10;99.90;;;;;;5052791;28;20384;-73
2022/02/22 08:31:26;;;;;;;21.95;4.50;;;6.20;99.90;;;;;;5051213;28;20017;-73
2022/02/22 08:33:58;;;;;;;23.67;4.97;;;6.20;99.90;;;;;;5053843;28;20115;-74
2022/02/22 08:36:25;;;;;;;24.48;5.32;;;6.30;99.90;;;;;;5039957;28;20500;-73
2022/02/22 08:38:51;;;;;;;19.95;4.57;;;6.40;99.90;;;;;;5034221;28;20478;-74
2022/02/22 08:41:17;;;;;;;27.60;6.03;;;6.40;99.90;;;;;;5033087;28;20041;-73
2022/02/22 08:43:43;;;;;;;20.75;4.10;;;6.50;99.90;;;;;;5049567;28;20017;-74
2022/02/22 08:46:08;;;;;;;25.98;5.57;;;6.50;99.90;;;;;;5032950;28;20034;-74
2022/02/22 08:48:34;;;;;;;14.43;4.03;;;6.50;99.90;;;;;;5034245;28;20036;-73
2022/02/22 08:50:59;;;;;;;25.42;5.82;;;6.60;99.90;;;;;;5057491;28;20389;-74
2022/02/22 08:53:25;;;;;;;25.90;6.00;;;6.60;99.90;;;;;;5052406;28;20021;-74
2022/02/22 08:55:50;;;;;;;26.35;5.07;;;6.60;99.90;;;;;;5052229;28;20112;-73
2022/02/22 08:58:16;;;;;;;26.83;5.25;;;6.60;99.90;;;;;;5052514;28;20016;-74
2022/02/22 09:00:42;;;;;;;20.55;5.03;;;6.60;99.90;;;;;;5052443;28;20025;-73
2022/02/22 09:03:07;;;;;;;23.48;5.22;;;6.70;99.90;;;;;;5052400;28;20021;-73
2022/02/22 09:05:34;;;;;;;21.38;5.13;;;6.70;99.90;;;;;;5053325;28;20029;-73
2022/02/22 09:08:00;;;;;;;21.75;4.63;;;6.80;99.90;;;;;;5053575;28;20021;-74
2022/02/22 09:10:26;;;;;;;20.83;4.90;;;6.90;99.90;;;;;;5053768;28;20037;-73
2022/02/22 09:12:52;;;;;;;27.02;6.03;;;7.00;99.90;;;;;;5052802;28;20032;-73
2022/02/22 09:15:19;;;;;;;20.98;5.95;;;7.00;99.90;;;;;;5032938;28;20033;-73
2022/02/22 09:17:46;;;;;;;21.27;4.80;;;7.10;99.90;;;;;;5043648;28;20475;-73
2022/02/22 09:20:15;;;;;;;33.13;6.95;;;7.10;99.90;;;;;;5036654;28;20017;-73
2022/02/22 09:22:41;;;;;;;20.08;5.18;;;7.10;99.90;;;;;;5052182;28;20052;-73
2022/02/22 09:25:09;;;;;;;18.90;5.10;;;7.20;99.90;;;;;;5052142;28;20065;-73
2022/02/22 09:27:35;;;;;;;26.08;5.72;;;7.20;99.90;;;;;;5053250;28;20021;-73
2022/02/22 09:30:00;;;;;;;24.52;5.40;;;7.20;99.90;;;;;;5053250;28;20029;-73
2022/02/22 09:32:27;;;;;;;26.60;5.80;;;7.30;99.90;;;;;;5053720;28;20033;-73
2022/02/22 09:34:53;;;;;;;22.15;5.93;;;7.30;99.90;;;;;;5051883;28;20021;-73
2022/02/22 09:37:18;;;;;;;26.52;5.60;;;7.30;99.90;;;;;;5053126;28;20025;-73
2022/02/22 09:39:44;;;;;;;23.45;7.05;;;7.30;99.90;;;;;;5052753;28;20392;-73
2022/02/22 09:42:10;;;;;;;21.30;5.07;;;7.40;99.90;;;;;;5053252;28;20028;-73
2022/02/22 09:44:40;;;;;;;29.48;4.65;;;7.40;99.90;;;;;;5053077;28;20029;-73
2022/02/22 09:47:07;;;;;;;21.67;4.68;;;7.50;99.90;;;;;;5051705;28;20033;-73
2022/02/22 09:49:33;;;;;;;24.10;4.93;;;7.50;99.90;;;;;;5051586;28;20048;-73
2022/02/22 09:51:59;;;;;;;28.88;5.28;;;7.50;99.90;;;;;;5051830;28;20397;-73
2022/02/22 09:54:28;;;;;;;23.98;5.38;;;7.50;99.90;;;;;;5053301;28;20040;-73
2022/02/22 09:56:55;;;;;;;19.95;4.50;;;7.60;99.90;;;;;;5052769;28;20068;-74
2022/02/22 09:59:21;;;;;;;18.58;4.30;;;7.60;99.90;;;;;;5052947;28;20023;-73
2022/02/22 10:01:50;;;;;;;24.15;5.25;;;7.60;99.90;;;;;;5051036;28;20021;-73
2022/02/22 10:04:16;;;;;;;24.25;4.50;;;7.60;99.90;;;;;;5052133;28;20029;-73
2022/02/22 10:06:59;;;;;;;18.00;4.18;;;7.60;99.90;;;;;;5051052;28;20029;-73
2022/02/22 10:09:25;;;;;;;23.50;3.92;;;7.60;99.90;;;;;;5050240;28;20549;-73
2022/02/22 10:11:52;;;;;;;25.52;5.15;;;7.60;99.90;;;;;;5045512;28;20108;-73
2022/02/22 10:14:23;;;;;;;22.05;4.38;;;7.60;99.90;;;;;;5068124;28;20087;-73
2022/02/22 10:16:49;;;;;;;23.20;4.75;;;7.70;99.90;;;;;;5048625;28;20036;-73
2022/02/22 10:19:17;;;;;;;21.58;4.50;;;7.60;99.90;;;;;;5051025;28;20017;-72
2022/02/22 10:21:47;;;;;;;19.95;4.32;;;7.70;99.90;;;;;;5048915;28;20013;-72
2022/02/22 10:24:15;;;;;;;26.90;5.15;;;7.70;99.90;;;;;;5067788;28;20071;-73
2022/02/22 10:26:41;;;;;;;18.17;4.07;;;7.80;99.90;;;;;;5051652;28;20484;-72
2022/02/22 10:29:20;;;;;;;20.85;3.88;;;7.80;99.90;;;;;;5047024;28;20517;-73
2022/02/22 10:31:47;;;;;;;26.88;4.88;;;7.80;99.90;;;;;;5050595;28;20031;-73
2022/02/22 10:34:13;;;;;;;28.08;4.75;;;7.80;99.90;;;;;;5061917;28;20025;-72
2022/02/22 10:36:42;;;;;;;21.42;4.18;;;7.80;99.90;;;;;;5050740;28;20025;-72
2022/02/22 10:39:12;;;;;;;20.00;4.72;;;7.90;99.90;;;;;;5050491;28;20021;-73
2022/02/22 10:41:43;;;;;;;19.77;5.05;;;7.90;99.90;;;;;;5047445;28;20041;-72
2022/02/22 10:44:11;;;;;;;20.17;3.80;;;7.90;99.90;;;;;;5050758;28;20070;-72
2022/02/22 10:46:45;;;;;;;25.10;4.93;;;8.00;99.90;;;;;;5050650;28;20451;-72
2022/02/22 10:49:13;;;;;;;27.83;6.68;;;8.00;99.90;;;;;;5049997;28;20024;-72
2022/02/22 10:51:52;;;;;;;27.13;5.57;;;8.00;99.90;;;;;;5061661;28;20021;-74
2022/02/22 10:54:20;;;;;;;18.83;5.22;;;8.00;99.90;;;;;;5054238;28;20029;-73
2022/02/22 10:56:46;;;;;;;24.23;5.60;;;8.00;99.90;;;;;;5052132;28;20090;-73
2022/02/22 10:59:11;;;;;;;24.15;5.88;;;8.00;99.90;;;;;;5050921;28;20021;-73
2022/02/22 11:01:37;;;;;;;26.42;5.35;;;8.00;99.90;;;;;;5049195;28;20075;-72
2022/02/22 11:04:03;;;;;;;30.77;5.13;;;8.00;99.90;;;;;;5047560;28;20043;-73
2022/02/22 11:06:28;;;;;;;22.83;5.15;;;8.10;99.90;;;;;;5047971;28;20029;-72
2022/02/22 11:08:56;;;;;;;30.38;6.10;;;8.10;99.90;;;;;;5046628;28;20071;-72
2022/02/22 11:11:37;;;;;;;24.40;6.25;;;8.10;99.90;;;;;;5055433;28;20029;-72
2022/02/22 11:14:04;;;;;;;26.30;5.45;;;8.10;99.90;;;;;;5050513;28;20021;-73
2022/02/22 11:16:47;;;;;;;23.48;4.82;;;8.20;99.90;;;;;;5052848;28;20067;-73
2022/02/22 11:19:24;;;;;;;26.58;5.45;;;8.20;99.90;;;;;;5053609;28;20093;-73
2022/02/22 11:22:08;;;;;;;31.48;5.60;;;8.20;99.90;;;;;;5053551;28;20025;-72
2022/02/22 11:24:50;;;;;;;20.00;5.35;;;8.10;99.90;;;;;;5055881;28;20059;-72
2022/02/22 11:27:31;;;;;;;27.42;6.35;;;8.20;99.90;;;;;;5067326;28;20032;-72
2022/02/22 11:30:07;;;;;;;29.15;5.05;;;8.20;99.90;;;;;;5053334;28;20033;-72
2022/02/22 11:32:34;;;;;;;31.83;7.30;;;8.20;99.90;;;;;;5071019;28;20116;-73
2022/02/22 11:35:13;;;;;;;33.00;5.05;;;8.20;99.90;;;;;;5055485;28;20029;-72
2022/02/22 11:37:39;;;;;;;27.63;5.93;;;8.20;99.90;;;;;;5055344;28;20029;-72
2022/02/22 11:40:06;;;;;;;35.20;7.07;;;8.10;99.90;;;;;;5050583;28;20275;-72
2022/02/22 11:42:32;;;;;;;31.70;6.45;;;8.10;99.90;;;;;;5051253;28;20021;-72
2022/02/22 11:45:09;;;;;;;24.33;5.88;;;8.10;99.90;;;;;;5050751;28;20055;-72
2022/02/22 11:47:37;;;;;;;31.88;6.03;;;8.10;99.90;;;;;;5053515;28;20041;-72
2022/02/22 11:50:15;;;;;;;31.83;6.20;;;8.00;99.90;;;;;;5053750;28;20074;-72
2022/02/22 11:52:43;;;;;;;27.80;6.45;;;8.00;99.90;;;;;;5051149;28;20013;-73
2022/02/22 11:55:12;;;;;;;26.10;6.38;;;8.00;99.90;;;;;;5053566;28;20021;-72
2022/02/22 11:57:55;;;;;;;27.55;6.35;;;8.00;99.90;;;;;;5053223;28;20025;-72
2022/02/22 12:00:33;;;;;;;26.98;6.35;;;8.00;99.90;;;;;;5063461;28;20473;-72
2022/02/22 12:03:06;;;;;;;27.00;6.70;;;8.00;99.90;;;;;;5064592;28;20047;-73
2022/02/22 12:05:39;;;;;;;34.70;6.57;;;8.00;99.90;;;;;;5051090;28;20017;-72
2022/02/22 12:08:10;;;;;;;28.02;6.68;;;8.10;99.90;;;;;;5051020;28;20029;-72
2022/02/22 12:10:52;;;;;;;22.73;6.13;;;8.10;99.90;;;;;;5046857;28;20036;-72
2022/02/22 12:13:21;;;;;;;24.92;6.07;;;8.20;99.90;;;;;;5046594;28;20025;-72
2022/02/22 12:15:47;;;;;;;33.28;9.40;;;8.20;99.90;;;;;;5050779;28;20507;-73
2022/02/22 12:18:19;;;;;;;29.08;7.25;;;8.20;99.90;;;;;;5050785;28;20108;-73
2022/02/22 12:20:46;;;;;;;33.80;8.38;;;8.30;99.90;;;;;;5047798;28;20033;-73
2022/02/22 12:23:30;;;;;;;34.30;7.65;;;8.30;99.90;;;;;;5050673;28;20484;-72
2022/02/22 12:25:56;;;;;;;33.85;9.48;;;8.30;99.90;;;;;;5047090;28;20033;-73
2022/02/22 12:28:23;;;;;;;28.60;8.50;;;8.30;99.90;;;;;;5039020;28;20040;-72
2022/02/22 12:30:50;;;;;;;27.92;7.63;;;8.40;99.90;;;;;;5050664;28;20052;-72
2022/02/22 12:33:17;;;;;;;29.40;8.50;;;8.40;99.90;;;;;;5050459;28;20438;-72
2022/02/22 12:35:44;;;;;;;35.38;8.90;;;8.50;99.90;;;;;;5050411;28;20448;-72
2022/02/22 12:38:14;;;;;;;30.45;9.02;;;8.50;99.90;;;;;;5050775;28;20013;-72
2022/02/22 12:40:40;;;;;;;36.85;8.73;;;8.60;99.90;;;;;;5052830;28;20049;-72
2022/02/22 12:43:07;;;;;;;37.67;9.15;;;8.60;99.90;;;;;;5054080;28;20511;-72
2022/02/22 12:45:43;;;;;;;29.70;9.30;;;8.70;99.90;;;;;;5052842;28;20473;-72